Česky Dansk Deutsch English Español Suomi Français Magyar Italiano Nederlands norsk Polski Português svenska Türkçe

 

Het Weer

Mongu (Zambia)

06:00, 10 december 2012 (GMT)

NWNNE
WE
SWSSE
Home            
Mongu Senanga Kaoma Zambezi Kabompo Sesheke Katima Mulilo Kasempa Kasane Shakawe Livingstone Mwinilunga Victoria Falls Choma Rundu Solwezi Binga Maun Hwange National Park Kolwezi Lusaka Internationalairport Lusaka City Airport Kabwe

Om een weerknop op uw website of weblog te plaatsen, copieer onderstaande code en plak die in uw pagina. In het eerste vakje staat HTML-code, in het tweede vakje UBB-code.


Add to Google

Details

Visibility:Greater than 10000 m, 10 km, 32800 ft, 6.2 miles
Clouds:Aufgelockert bewölkt at 1000 ft, 305 m
Aufgelockert bewölkt at 4000 ft, 1219 m
Aufgelockert bewölkt at 30000 ft, 9144 m
Temperature:22°C, 72°F
Gefühlte Temperatur:21°C, 70°F
Dew-point:20°C, 68°F
Atmospheric pressure:1015 hPa, 761.3 mmHg, 29.97 inHg, 1.002 atm
Relative humidity:88.4 %
METAR:FLMG 100600Z 00000KT 9999 SCT010 SCT040 SCT300 22/20 Q1015

Snelkoppelingen

Actuele weersinformatie van de hele wereld. Voeg locaties toe met het plus (+) symbool. Deze snelkoppelingen kunnen worden toegevoegd aan Google.

Lid van de Technetium groep

website free tracking
StatCounter NetStat W3C Validator

21-10-2020 11:48:36
astro.technetium.be money.technetium.be phote.technetium.be tafeltennistafel.technetium.be www.ligfiets.net